Time;durP1;ratioP1;P1;durP2;ratioP2;P2;SDS_P1;SDS_P2;PMS_P1;PMS_P2;Temp;Humidity;BMP_temperature;BMP_pressure;BME280_temperature;BME280_humidity;BME280_pressure;Samples;Min_cycle;Max_cycle;Signal;HPM_P1;HPM_P2
2022/04/05 00:01:22;;;;;;;5.88;2.83;;;;;;;0.24;48.89;98202.00;5011080;28;20395;-77
2022/04/05 00:03:47;;;;;;;4.65;2.40;;;;;;;0.26;49.32;98185.00;4993464;28;20034;-77
2022/04/05 00:06:13;;;;;;;3.83;2.30;;;;;;;0.36;48.87;98199.59;4963130;28;20074;-76
2022/04/05 00:08:39;;;;;;;4.78;2.63;;;;;;;0.33;49.27;98208.91;4998696;28;20059;-77
2022/04/05 00:11:04;;;;;;;4.55;2.78;;;;;;;0.04;49.16;98186.41;4976214;28;20043;-77
2022/04/05 00:13:30;;;;;;;4.13;2.78;;;;;;;0.03;49.79;98188.94;4975004;28;20057;-77
2022/04/05 00:15:56;;;;;;;8.65;3.38;;;;;;;-0.09;50.06;98167.56;4974891;28;20490;-77
2022/04/05 00:18:21;;;;;;;4.43;2.67;;;;;;;0.02;49.79;98203.38;4975257;28;20081;-77
2022/04/05 00:20:47;;;;;;;4.38;2.58;;;;;;;0.10;50.04;98216.25;4959152;28;20386;-77
2022/04/05 00:23:14;;;;;;;4.38;2.72;;;;;;;-0.06;50.66;98193.06;4975189;28;20039;-78
2022/04/05 00:25:40;;;;;;;5.63;2.63;;;;;;;-0.06;50.57;98200.72;4959253;28;20034;-77
2022/04/05 00:28:06;;;;;;;3.80;2.53;;;;;;;-0.10;50.43;98173.47;4959565;28;20026;-78
2022/04/05 00:30:32;;;;;;;4.63;2.47;;;;;;;-0.06;49.96;98154.84;4976029;28;20050;-76
2022/04/05 00:32:57;;;;;;;5.50;2.80;;;;;;;-0.19;49.94;98142.75;4975344;28;20412;-78
2022/04/05 00:35:23;;;;;;;5.72;2.72;;;;;;;-0.27;50.22;98157.09;4927710;28;20176;-78
2022/04/05 00:37:49;;;;;;;3.67;2.60;;;;;;;-0.27;50.73;98172.38;4961211;28;20027;-76
2022/04/05 00:40:15;;;;;;;5.10;2.92;;;;;;;-0.30;51.02;98165.53;4951211;28;20513;-76
2022/04/05 00:42:41;;;;;;;4.82;2.97;;;;;;;-0.32;50.60;98146.84;4977285;28;20031;-77
2022/04/05 00:45:07;;;;;;;6.15;2.42;;;;;;;-0.11;51.38;98187.06;4993965;28;20085;-77
2022/04/05 00:47:32;;;;;;;5.70;2.75;;;;;;;-0.23;51.02;98161.38;5002934;28;20396;-79
2022/04/05 00:49:58;;;;;;;7.35;2.80;;;;;;;-0.13;50.99;98193.84;4962346;28;20050;-77
2022/04/05 00:52:24;;;;;;;6.15;3.20;;;;;;;-0.22;51.31;98182.66;4974398;28;20034;-77
2022/04/05 00:54:51;;;;;;;4.53;3.00;;;;;;;-0.26;51.52;98172.41;4973871;28;20066;-77
2022/04/05 00:57:21;;;;;;;4.40;2.80;;;;;;;-0.45;51.69;98154.28;4973799;28;20117;-76
2022/04/05 00:59:49;;;;;;;6.10;3.00;;;;;;;-0.27;51.71;98185.13;4983021;28;20038;-79
2022/04/05 01:02:16;;;;;;;8.45;3.22;;;;;;;-0.33;51.66;98167.19;4994427;28;20044;-78
2022/04/05 01:04:42;;;;;;;5.57;2.95;;;;;;;-0.37;52.27;98138.25;5009631;28;20137;-78
2022/04/05 01:07:10;;;;;;;5.72;2.78;;;;;;;-0.24;51.54;98136.75;4964614;28;20066;-77
2022/04/05 01:09:39;;;;;;;6.53;3.30;;;;;;;-0.05;51.38;98170.97;5008342;28;20042;-79
2022/04/05 01:12:06;;;;;;;7.68;3.58;;;;;;;-0.15;51.95;98175.09;4994065;28;20046;-77
2022/04/05 01:14:32;;;;;;;9.23;4.35;;;;;;;-0.22;51.62;98167.34;5037552;28;20058;-77
2022/04/05 01:16:58;;;;;;;8.38;4.70;;;;;;;-0.51;52.78;98140.59;5006163;28;20035;-76
2022/04/05 01:19:24;;;;;;;8.50;5.10;;;;;;;-0.54;52.88;98145.66;5022819;28;20049;-77
2022/04/05 01:21:50;;;;;;;9.18;5.40;;;;;;;-0.71;52.79;98110.56;4993165;28;20548;-78
2022/04/05 01:24:15;;;;;;;9.52;6.05;;;;;;;-0.37;52.65;98157.78;4994164;28;20165;-78
2022/04/05 01:26:42;;;;;;;8.00;4.88;;;;;;;-0.27;52.81;98162.19;4987110;28;20046;-78
2022/04/05 01:29:07;;;;;;;9.52;5.78;;;;;;;-0.52;52.09;98092.19;4986107;28;20446;-77
2022/04/05 01:31:41;;;;;;;10.68;6.22;;;;;;;-0.14;52.15;98166.59;4990811;28;20069;-77
2022/04/05 01:34:07;;;;;;;8.85;5.80;;;;;;;-0.21;52.19;98154.63;5010008;28;20608;-78
2022/04/05 01:36:33;;;;;;;8.93;5.40;;;;;;;-0.33;52.73;98116.22;5007294;28;20070;-78
2022/04/05 01:38:59;;;;;;;;;;;;;;;-0.07;52.01;98147.19;5009610;28;20132;-78
2022/04/05 01:41:24;;;;;;;9.77;5.60;;;;;;;-0.65;52.36;98083.50;4976404;28;19949;-77
2022/04/05 01:43:50;;;;;;;9.85;5.15;;;;;;;-0.59;53.31;98116.72;5008907;28;20046;-78
2022/04/05 01:46:16;;;;;;;8.15;4.68;;;;;;;-0.45;53.81;98142.41;4976580;28;20042;-77
2022/04/05 01:48:42;;;;;;;5.72;4.38;;;;;;;-0.71;53.87;98096.16;5020132;28;20050;-77
2022/04/05 01:51:07;;;;;;;8.55;4.28;;;;;;;-0.41;53.34;98133.09;5016493;28;20034;-77
2022/04/05 01:53:33;;;;;;;7.70;4.13;;;;;;;-0.48;53.15;98113.47;5008629;28;20449;-77
2022/04/05 01:55:59;;;;;;;6.35;3.97;;;;;;;-0.24;53.18;98112.94;4993000;28;20041;-77
2022/04/05 01:58:25;;;;;;;5.65;3.42;;;;;;;-0.28;53.03;98105.25;4992609;28;20046;-76
2022/04/05 02:00:51;;;;;;;4.47;3.38;;;;;;;-0.17;53.14;98130.06;5009332;28;20038;-76
2022/04/05 02:03:17;;;;;;;5.75;3.75;;;;;;;-0.41;53.41;98095.75;4967491;28;20387;-77
2022/04/05 02:05:46;;;;;;;6.63;3.88;;;;;;;-0.26;53.20;98097.66;4957020;28;20401;-77
2022/04/05 02:08:13;;;;;;;5.72;3.92;;;;;;;-0.21;53.77;98118.09;4958131;28;20419;-77
2022/04/05 02:10:38;;;;;;;8.43;4.10;;;;;;;-0.08;53.81;98123.38;4974144;28;20549;-78
2022/04/05 02:13:05;;;;;;;6.82;2.78;;;;;;;-0.21;53.81;98096.00;4973783;28;20047;-77
2022/04/05 02:15:39;;;;;;;6.13;3.30;;;;;;;-0.16;53.59;98073.13;4975468;28;20105;-77
2022/04/05 02:18:07;;;;;;;5.60;3.10;;;;;;;0.01;53.79;98092.06;4957497;28;20047;-77
2022/04/05 02:20:33;;;;;;;7.97;3.33;;;;;;;0.13;53.71;98121.94;4990309;28;20093;-77
2022/04/05 02:23:01;;;;;;;5.68;3.17;;;;;;;0.11;53.52;98118.53;4957675;28;20094;-77
2022/04/05 02:25:47;;;;;;;7.07;3.28;;;;;;;-0.03;53.52;98080.09;4958461;29;20059;-78
2022/04/05 02:28:17;;;;;;;7.72;2.92;;;;;;;0.17;53.41;98116.03;4973866;28;20097;-77
2022/04/05 02:30:48;;;;;;;9.05;3.20;;;;;;;0.01;53.71;98099.72;4957787;29;20039;-77
2022/04/05 02:33:17;;;;;;;7.38;2.85;;;;;;;-0.14;54.27;98085.06;4989692;28;20039;-78
2022/04/05 02:35:44;;;;;;;5.82;3.58;;;;;;;-0.14;54.16;98089.28;4973138;28;20031;-77
2022/04/05 02:38:11;;;;;;;6.80;3.08;;;;;;;-0.25;54.03;98050.94;4989419;28;20071;-78
2022/04/05 02:40:40;;;;;;;7.63;3.20;;;;;;;0.17;53.89;98100.75;4989675;28;20139;-77
2022/04/05 02:43:09;;;;;;;7.28;2.92;;;;;;;-0.01;53.79;98078.41;4973275;28;20043;-77
2022/04/05 02:45:35;;;;;;;8.70;2.97;;;;;;;0.15;54.00;98082.03;4973386;28;20031;-77
2022/04/05 02:48:03;;;;;;;6.72;3.33;;;;;;;0.29;53.94;98106.00;4973810;28;20042;-76
2022/04/05 02:50:30;;;;;;;8.15;2.97;;;;;;;0.03;54.16;98062.31;4993156;28;20058;-78
2022/04/05 02:52:57;;;;;;;6.22;3.30;;;;;;;0.07;54.32;98079.38;4951681;29;20041;-77
2022/04/05 02:55:23;;;;;;;5.63;2.92;;;;;;;-0.09;54.35;98064.72;4973175;28;20027;-77
2022/04/05 02:57:50;;;;;;;6.50;3.10;;;;;;;-0.09;54.89;98086.00;4972822;28;20046;-77
2022/04/05 03:00:27;;;;;;;4.55;2.40;;;;;;;-0.07;54.89;98086.84;4977583;28;20035;-77
2022/04/05 03:02:53;;;;;;;6.45;3.22;;;;;;;0.09;54.76;98110.88;5019029;28;20120;-77
2022/04/05 03:05:22;;;;;;;9.13;3.42;;;;;;;-0.40;55.22;98054.16;5014959;28;20035;-76
2022/04/05 03:07:51;;;;;;;7.35;3.13;;;;;;;-0.07;54.91;98084.31;5020750;28;20064;-76
2022/04/05 03:10:17;;;;;;;6.82;2.90;;;;;;;0.06;55.16;98089.56;4997428;28;20038;-79
2022/04/05 03:12:48;;;;;;;7.85;3.15;;;;;;;-0.08;54.86;98067.31;4989753;28;20058;-77
2022/04/05 03:15:14;;;;;;;9.57;3.50;;;;;;;-0.21;55.60;98067.97;4990182;28;20034;-77
2022/04/05 03:17:44;;;;;;;5.78;3.38;;;;;;;-0.19;55.66;98076.50;4979611;28;20030;-78
2022/04/05 03:20:12;;;;;;;7.85;3.78;;;;;;;0.16;55.44;98101.59;4970026;28;20047;-76
2022/04/05 03:22:40;;;;;;;6.18;3.05;;;;;;;-0.13;54.95;98034.97;4999823;28;20117;-76
2022/04/05 03:25:06;;;;;;;13.45;3.45;;;;;;;0.23;55.31;98088.09;5011401;28;20042;-76
2022/04/05 03:27:32;;;;;;;6.95;3.30;;;;;;;-0.04;55.36;98048.66;4982165;28;20157;-76
2022/04/05 03:29:57;;;;;;;;;;;;;;;0.23;54.89;98085.53;5027094;28;20100;-77
2022/04/05 03:32:24;;;;;;;6.45;3.08;;;;;;;-0.10;54.65;98015.44;5023444;28;19921;-77
2022/04/05 03:34:52;;;;;;;7.88;3.10;;;;;;;0.25;55.04;98073.63;4994905;28;20045;-77
2022/04/05 03:37:19;;;;;;;7.05;3.30;;;;;;;0.07;55.19;98048.78;5045072;28;20066;-77
2022/04/05 03:39:44;;;;;;;6.53;3.40;;;;;;;0.32;55.44;98075.44;5005334;28;20043;-76
2022/04/05 03:42:10;;;;;;;;;;;;;;;0.34;54.67;98083.94;4960605;28;20089;-76
2022/04/05 03:44:37;;;;;;;8.00;2.95;;;;;;;0.07;55.06;98042.84;4992131;28;20341;-78
2022/04/05 03:47:03;;;;;;;6.70;3.20;;;;;;;-0.10;55.56;98015.44;4955125;28;20128;-77
2022/04/05 03:49:31;;;;;;;11.18;3.60;;;;;;;0.31;55.57;98071.16;5029461;28;20050;-76
2022/04/05 03:51:57;;;;;;;6.80;3.28;;;;;;;0.45;55.32;98076.41;4996866;28;20411;-75
2022/04/05 03:54:23;;;;;;;;;;;;;;;0.59;54.76;98071.44;4974654;28;20438;-77
2022/04/05 03:56:50;;;;;;;6.55;2.90;;;;;;;0.46;54.57;98027.97;5019988;28;19936;-77
2022/04/05 03:59:18;;;;;;;8.40;3.40;;;;;;;0.38;54.62;98016.81;5005475;28;20053;-76
2022/04/05 04:01:44;;;;;;;7.28;3.22;;;;;;;0.53;55.06;98066.28;4978349;28;20025;-78
2022/04/05 04:04:11;;;;;;;6.65;3.03;;;;;;;0.20;55.28;98029.38;4992776;28;20041;-77
2022/04/05 04:06:38;;;;;;;6.18;3.38;;;;;;;0.44;54.91;98019.41;4979787;28;20038;-77
2022/04/05 04:09:04;;;;;;;6.85;3.85;;;;;;;0.44;54.87;98021.97;4979126;28;20062;-78
2022/04/05 04:11:31;;;;;;;6.55;3.15;;;;;;;0.68;54.72;98051.09;5011773;28;20042;-78
2022/04/05 04:13:58;;;;;;;5.47;2.83;;;;;;;0.74;54.08;98034.16;4988856;28;20022;-79
2022/04/05 04:16:26;;;;;;;7.28;3.00;;;;;;;0.68;53.88;98021.34;4979333;28;20045;-78
2022/04/05 04:18:52;;;;;;;8.45;3.63;;;;;;;0.59;54.39;98043.38;5004681;28;20038;-77
2022/04/05 04:21:18;;;;;;;5.28;3.03;;;;;;;0.90;54.36;98070.88;4991176;28;20038;-78
2022/04/05 04:23:45;;;;;;;5.43;3.13;;;;;;;0.82;54.32;98052.09;5012862;28;20026;-78
2022/04/05 04:26:11;;;;;;;8.55;3.00;;;;;;;0.79;54.24;98041.88;4994279;28;20093;-78
2022/04/05 04:28:37;;;;;;;7.50;3.17;;;;;;;0.84;54.27;98060.63;4979698;28;20077;-78
2022/04/05 04:31:03;;;;;;;6.60;3.30;;;;;;;0.69;54.13;98023.06;4994982;28;20050;-79
2022/04/05 04:33:28;;;;;;;9.18;2.83;;;;;;;0.91;53.61;98058.97;5011815;28;20030;-79
2022/04/05 04:35:54;;;;;;;7.15;3.55;;;;;;;0.53;53.94;97982.94;4994803;28;20066;-79
2022/04/05 04:38:20;;;;;;;;;;;;;;;1.18;53.85;98063.44;5028116;28;20042;-78
2022/04/05 04:40:46;;;;;;;7.55;3.00;;;;;;;0.94;53.57;98013.91;4996139;28;20269;-78
2022/04/05 04:43:14;;;;;;;5.70;2.95;;;;;;;0.95;53.16;98022.41;4999493;28;20066;-79
2022/04/05 04:45:40;;;;;;;9.02;3.10;;;;;;;1.10;53.11;98011.44;5011442;28;20072;-78
2022/04/05 04:48:06;;;;;;;6.68;2.80;;;;;;;1.44;53.13;98069.59;4994818;28;20124;-77
2022/04/05 04:50:32;;;;;;;7.05;2.92;;;;;;;1.51;52.79;98067.91;4976751;28;20054;-78
2022/04/05 04:52:57;;;;;;;4.40;2.70;;;;;;;1.53;52.93;98058.59;4975860;28;20042;-79
2022/04/05 04:55:24;;;;;;;7.35;3.65;;;;;;;1.56;52.47;98037.28;4990768;28;20383;-79
2022/04/05 04:57:50;;;;;;;5.32;3.08;;;;;;;1.33;52.20;97998.81;4995080;28;20088;-79
2022/04/05 05:00:17;;;;;;;6.32;3.55;;;;;;;1.26;52.63;98014.13;5028293;28;20065;-79
2022/04/05 05:02:51;;;;;;;7.43;3.03;;;;;;;1.36;52.67;98017.59;4995920;28;20038;-78
2022/04/05 05:05:21;;;;;;;7.60;3.38;;;;;;;1.25;52.49;98016.69;4995947;28;20441;-77
2022/04/05 05:07:50;;;;;;;6.85;3.47;;;;;;;1.28;52.64;98024.34;4981729;28;20062;-79
2022/04/05 05:10:17;;;;;;;6.45;3.05;;;;;;;1.24;52.84;98017.53;4979000;28;20469;-79
2022/04/05 05:12:42;;;;;;;;;;;;;;;1.60;52.47;98052.66;4994981;28;20038;-79
2022/04/05 05:15:09;;;;;;;9.95;3.10;;;;;;;1.42;52.26;98006.53;4996540;28;19917;-79
2022/04/05 05:17:35;;;;;;;9.73;3.15;;;;;;;1.40;52.36;98011.66;4965847;28;20077;-78
2022/04/05 05:20:02;;;;;;;5.55;3.10;;;;;;;1.57;52.27;98037.31;5005219;28;20097;-79
2022/04/05 05:22:28;;;;;;;4.47;2.72;;;;;;;1.43;52.12;98005.72;4976679;28;20073;-78
2022/04/05 05:24:54;;;;;;;7.32;3.90;;;;;;;1.61;52.32;98035.63;4978796;28;20042;-79
2022/04/05 05:27:22;;;;;;;4.40;2.90;;;;;;;1.46;52.06;98039.78;4993206;28;20054;-80
2022/04/05 05:29:48;;;;;;;8.27;3.17;;;;;;;1.46;51.94;98009.13;5009873;28;20038;-79
2022/04/05 05:32:14;;;;;;;6.35;3.00;;;;;;;1.64;51.59;98015.19;4960183;28;20121;-79
2022/04/05 05:34:40;;;;;;;8.40;3.45;;;;;;;1.87;51.00;98034.03;5008926;28;20054;-79
2022/04/05 05:37:05;;;;;;;7.82;3.67;;;;;;;1.75;50.38;98003.31;4975740;28;20061;-79
2022/04/05 05:39:32;;;;;;;6.28;3.20;;;;;;;1.76;50.21;97992.25;4976622;28;20133;-79
2022/04/05 05:41:58;;;;;;;5.75;3.28;;;;;;;2.11;50.11;98037.53;4974008;28;20041;-78
2022/04/05 05:44:24;;;;;;;7.95;3.70;;;;;;;1.94;49.66;97994.88;4994205;28;20046;-78
2022/04/05 05:46:52;;;;;;;9.02;3.65;;;;;;;2.02;50.31;98016.22;5009134;28;20042;-81
2022/04/05 05:49:17;;;;;;;8.23;3.50;;;;;;;1.97;49.81;98004.22;4991059;28;20050;-78
2022/04/05 05:51:43;;;;;;;7.32;3.05;;;;;;;2.20;49.75;98027.31;4977704;28;20031;-79
2022/04/05 05:54:10;;;;;;;7.00;3.25;;;;;;;2.36;48.85;98018.00;5004320;28;20486;-79
2022/04/05 05:56:36;;;;;;;4.78;2.30;;;;;;;1.94;49.64;97959.06;4976566;28;20046;-78
2022/04/05 05:59:03;;;;;;;7.10;3.33;;;;;;;2.17;49.42;98004.31;4963928;28;20498;-80
2022/04/05 06:01:29;;;;;;;7.38;3.30;;;;;;;1.98;49.21;97967.59;5009459;28;20112;-79
2022/04/05 06:03:55;;;;;;;8.70;4.32;;;;;;;2.34;48.96;98006.91;4978385;28;20069;-80
2022/04/05 06:06:21;;;;;;;8.30;3.90;;;;;;;2.11;48.98;97940.34;4960959;28;20034;-80
2022/04/05 06:08:47;;;;;;;6.07;3.28;;;;;;;2.46;48.92;98001.81;5006306;28;20480;-80
2022/04/05 06:11:13;;;;;;;6.38;3.30;;;;;;;2.62;49.00;98011.22;4987846;28;20038;-79
2022/04/05 06:13:39;;;;;;;5.10;2.88;;;;;;;2.60;48.39;97973.66;5003179;28;20501;-79
2022/04/05 06:16:07;;;;;;;7.53;3.70;;;;;;;2.69;48.09;97974.53;4994088;28;20046;-80
2022/04/05 06:18:34;;;;;;;6.43;2.45;;;;;;;2.88;48.39;98012.94;4962263;28;20042;-79
2022/04/05 06:21:00;;;;;;;4.13;2.65;;;;;;;2.66;47.76;97955.78;4987855;28;20547;-79
2022/04/05 06:23:26;;;;;;;9.10;3.30;;;;;;;2.93;47.11;97981.38;4998313;28;20042;-79
2022/04/05 06:25:51;;;;;;;5.25;2.95;;;;;;;3.08;47.68;97998.44;5013382;28;20081;-78
2022/04/05 06:28:18;;;;;;;7.55;3.10;;;;;;;3.19;46.98;97991.56;4982937;28;20073;-79
2022/04/05 06:30:44;;;;;;;6.53;3.70;;;;;;;2.94;46.95;97956.59;4997939;28;20034;-78
2022/04/05 06:33:11;;;;;;;5.82;3.28;;;;;;;2.94;47.27;97957.44;4997232;28;20398;-79
2022/04/05 06:35:41;;;;;;;5.63;3.20;;;;;;;2.94;47.21;97942.09;4944883;28;20497;-79
2022/04/05 06:38:07;;;;;;;9.55;3.30;;;;;;;3.18;47.09;97956.56;4975742;28;20046;-80
2022/04/05 06:40:33;;;;;;;6.70;3.35;;;;;;;3.32;46.51;97953.97;5013452;28;20037;-79
2022/04/05 06:42:59;;;;;;;7.13;3.60;;;;;;;3.41;46.31;97946.25;4968771;28;20046;-79
2022/04/05 06:45:24;;;;;;;6.75;3.22;;;;;;;3.40;46.34;97947.09;4989576;28;20085;-81
2022/04/05 06:47:50;;;;;;;5.30;2.90;;;;;;;3.52;45.80;97953.88;5014023;28;20038;-79
2022/04/05 06:50:20;;;;;;;8.15;2.92;;;;;;;3.67;44.96;97940.19;4981952;28;20038;-78
2022/04/05 06:52:46;;;;;;;7.45;3.10;;;;;;;4.07;44.84;97990.41;4986247;28;20019;-78
2022/04/05 06:55:12;;;;;;;8.13;3.40;;;;;;;4.05;44.33;97976.75;4966613;28;20034;-80
2022/04/05 06:57:38;;;;;;;8.25;3.30;;;;;;;3.99;44.70;97984.50;4982724;28;20061;-78
2022/04/05 07:00:06;;;;;;;8.25;3.60;;;;;;;3.61;44.37;97948.72;4999097;28;20109;-80
2022/04/05 07:02:32;;;;;;;9.02;3.30;;;;;;;3.66;45.25;97964.94;4999986;28;20038;-79
2022/04/05 07:04:58;;;;;;;8.30;4.00;;;;;;;3.62;44.75;97931.63;5033686;28;20504;-79
2022/04/05 07:07:23;;;;;;;11.23;3.35;;;;;;;4.03;44.40;97973.34;4982300;28;20467;-79
2022/04/05 07:09:49;;;;;;;6.32;3.28;;;;;;;4.13;44.29;97979.28;4998754;28;20069;-80
2022/04/05 07:12:15;;;;;;;7.43;3.08;;;;;;;4.10;43.69;97920.28;4997450;28;20038;-79
2022/04/05 07:14:40;;;;;;;6.90;3.35;;;;;;;4.17;43.17;97931.34;4963535;29;20066;-79
2022/04/05 07:17:06;;;;;;;5.65;2.78;;;;;;;4.03;43.66;97923.72;5011645;28;20062;-80
2022/04/05 07:19:33;;;;;;;9.70;3.78;;;;;;;4.29;43.92;97951.81;4965927;28;20050;-79
2022/04/05 07:22:00;;;;;;;5.57;3.22;;;;;;;4.46;43.22;97949.13;4991367;28;20039;-80
2022/04/05 07:24:26;;;;;;;12.10;4.15;;;;;;;4.42;43.09;97961.13;5011526;28;20034;-79
2022/04/05 07:26:54;;;;;;;6.18;2.85;;;;;;;4.39;43.38;97938.03;4980047;28;20375;-80
2022/04/05 07:29:20;;;;;;;5.43;2.70;;;;;;;4.53;43.33;97964.47;4963265;28;20065;-78
2022/04/05 07:31:45;;;;;;;14.13;3.97;;;;;;;4.87;42.22;97935.97;4969630;28;20073;-79
2022/04/05 07:34:11;;;;;;;5.53;2.75;;;;;;;5.04;41.85;97931.53;5015256;28;20034;-81
2022/04/05 07:36:37;;;;;;;6.63;2.20;;;;;;;5.06;42.00;97896.34;4980041;28;20043;-79
2022/04/05 07:39:03;;;;;;;5.25;3.10;;;;;;;5.49;40.92;97926.72;4988664;28;20038;-79
2022/04/05 07:41:29;;;;;;;5.45;3.10;;;;;;;5.52;40.39;97898.41;4971370;28;20065;-80
2022/04/05 07:43:55;;;;;;;8.43;3.15;;;;;;;5.69;40.00;97889.66;5009528;28;20038;-79
2022/04/05 07:46:21;;;;;;;8.30;3.00;;;;;;;5.97;39.71;97914.16;5004952;28;20113;-79
2022/04/05 07:48:47;;;;;;;7.68;3.03;;;;;;;6.40;39.66;97912.69;5002540;28;20058;-81
2022/04/05 07:51:14;;;;;;;4.82;2.97;;;;;;;6.55;38.28;97887.53;4986073;28;20386;-78
2022/04/05 07:53:40;;;;;;;7.18;2.78;;;;;;;6.81;37.32;97927.47;4969479;28;20051;-82
2022/04/05 07:56:06;;;;;;;5.55;2.83;;;;;;;6.68;37.75;97870.13;4990713;28;20508;-80
2022/04/05 07:58:31;;;;;;;3.97;2.40;;;;;;;6.86;36.92;97920.50;4971139;28;20042;-78
2022/04/05 08:00:58;;;;;;;7.43;3.15;;;;;;;6.92;37.02;97916.97;4975723;28;20374;-80
2022/04/05 08:03:23;;;;;;;;;;;;;;;7.09;37.39;97943.31;4997968;28;20042;-80
2022/04/05 08:05:49;;;;;;;4.93;3.00;;;;;;;6.75;37.12;97900.09;4986662;28;19905;-79
2022/04/05 08:08:15;;;;;;;4.60;2.58;;;;;;;6.70;37.67;97921.66;4980033;28;20053;-79
2022/04/05 08:10:41;;;;;;;5.43;2.90;;;;;;;6.96;36.75;97927.19;4980317;28;20491;-79
2022/04/05 08:13:07;;;;;;;;;;;;;;;7.38;36.94;97933.34;4994920;28;20054;-81
2022/04/05 08:15:32;;;;;;;7.13;3.22;;;;;;;7.40;35.80;97935.88;4976479;28;19984;-80
2022/04/05 08:17:58;;;;;;;4.95;2.88;;;;;;;7.28;36.00;97900.81;4977591;28;20580;-80
2022/04/05 08:20:24;;;;;;;5.63;3.25;;;;;;;7.10;36.41;97880.53;4993581;28;20107;-80
2022/04/05 08:22:50;;;;;;;5.32;3.17;;;;;;;7.37;36.08;97915.28;4967034;28;20062;-79
2022/04/05 08:25:16;;;;;;;5.53;3.30;;;;;;;7.35;35.25;97941.13;4961313;28;20133;-80
2022/04/05 08:27:43;;;;;;;6.85;3.47;;;;;;;7.28;35.49;97872.47;4961641;28;20047;-81
2022/04/05 08:30:10;;;;;;;6.25;3.38;;;;;;;7.22;34.47;97876.91;5008341;28;20052;-81
2022/04/05 08:32:42;;;;;;;6.38;3.13;;;;;;;7.06;34.90;97892.66;5027861;28;20421;-79
2022/04/05 08:35:12;;;;;;;7.93;3.95;;;;;;;6.89;34.83;97897.28;4964340;28;20047;-79
2022/04/05 08:37:39;;;;;;;7.20;3.45;;;;;;;6.98;35.66;97873.91;4980360;28;20514;-79
2022/04/05 08:40:06;;;;;;;5.15;3.00;;;;;;;7.26;34.99;97896.59;4961442;28;20482;-79
2022/04/05 08:42:36;;;;;;;5.78;3.30;;;;;;;7.40;34.74;97907.50;4961839;28;20051;-80
2022/04/05 08:45:04;;;;;;;5.57;3.50;;;;;;;7.46;34.09;97884.13;4975667;28;20053;-80
2022/04/05 08:47:30;;;;;;;7.57;3.38;;;;;;;7.93;33.17;97931.38;5003487;28;20033;-79
2022/04/05 08:49:56;;;;;;;7.22;3.20;;;;;;;7.93;34.19;97896.97;4998186;28;20050;-81
2022/04/05 08:52:22;;;;;;;4.68;2.55;;;;;;;8.17;33.07;97869.75;4972158;28;20120;-79
2022/04/05 08:54:48;;;;;;;6.93;3.08;;;;;;;8.58;32.24;97895.47;5013003;28;20065;-78
2022/04/05 08:57:14;;;;;;;5.22;2.95;;;;;;;8.31;32.03;97854.75;5031391;28;20038;-80
2022/04/05 08:59:40;;;;;;;7.00;2.85;;;;;;;8.30;33.13;97838.41;4997136;28;20108;-80
2022/04/05 09:02:06;;;;;;;7.07;3.33;;;;;;;8.46;32.13;97831.16;4991756;28;20039;-79
2022/04/05 09:04:33;;;;;;;4.80;2.97;;;;;;;8.75;32.90;97866.63;4981670;28;20057;-81
2022/04/05 09:07:30;;;;;;;4.60;2.80;;;;;;;8.88;32.92;97824.03;4962327;28;20042;-78
2022/04/05 09:10:13;;;;;;;10.18;3.45;;;;;;;9.10;31.75;97845.00;4992482;28;20042;-79
2022/04/05 09:12:39;;;;;;;7.38;2.75;;;;;;;9.63;31.00;97876.28;4979531;28;20066;-78
2022/04/05 09:15:08;;;;;;;5.45;3.00;;;;;;;9.58;31.25;97851.44;5023479;28;20034;-80
2022/04/05 09:17:41;;;;;;;7.10;3.10;;;;;;;9.35;30.71;97832.22;5045832;28;20030;-80
2022/04/05 09:20:07;;;;;;;5.75;3.20;;;;;;;9.12;31.92;97819.94;4997990;28;20042;-81
2022/04/05 09:22:34;;;;;;;;;;;;;;;9.47;32.37;97851.72;5013619;28;20030;-80
2022/04/05 09:25:06;;;;;;;5.53;3.35;;;;;;;9.55;31.41;97854.94;4996878;28;20016;-80
2022/04/05 09:27:53;;;;;;;4.53;2.80;;;;;;;9.35;31.56;97834.81;4979820;28;20050;-81
2022/04/05 09:30:27;;;;;;;4.43;2.65;;;;;;;9.33;31.10;97820.22;4979378;28;20041;-79
2022/04/05 09:32:54;;;;;;;5.55;2.80;;;;;;;9.24;31.18;97810.97;5011732;28;20046;-79
2022/04/05 09:35:21;;;;;;;5.28;2.63;;;;;;;9.00;30.54;97815.09;4996059;28;20132;-79
2022/04/05 09:37:47;;;;;;;9.80;2.83;;;;;;;8.84;31.72;97829.31;4964818;28;20097;-80
2022/04/05 09:40:20;;;;;;;;;;;;;;;9.08;31.89;97848.53;4995307;28;20034;-79
2022/04/05 09:42:59;;;;;;;5.32;2.70;;;;;;;9.03;31.94;97850.38;4996200;28;20328;-79
2022/04/05 09:45:44;;;;;;;4.32;2.70;;;;;;;9.30;31.21;97853.94;5000122;28;20382;-83
2022/04/05 09:48:10;;;;;;;3.60;2.70;;;;;;;9.14;30.85;97810.38;4997960;28;20042;-78
2022/04/05 09:51:12;;;;;;;;;;;;;;;9.35;31.64;97841.75;4966854;28;20032;-80
2022/04/05 09:53:51;;;;;;;7.22;3.20;;;;;;;9.33;31.19;97840.91;5005350;28;19914;-82
2022/04/05 09:56:17;;;;;;;4.13;2.83;;;;;;;9.31;30.90;97824.59;5005759;28;20065;-81
2022/04/05 09:58:53;;;;;;;10.40;3.00;;;;;;;8.80;31.72;97786.38;4981676;28;20513;-81
2022/04/05 10:01:20;;;;;;;4.38;2.53;;;;;;;8.83;31.31;97801.78;4996512;28;20048;-80
2022/04/05 10:03:57;;;;;;;4.60;2.85;;;;;;;8.86;31.71;97825.81;4999317;28;20038;-81
2022/04/05 10:06:23;;;;;;;6.35;2.65;;;;;;;9.26;31.35;97822.16;4980397;28;20061;-79
2022/04/05 10:08:48;;;;;;;3.50;1.95;;;;;;;8.85;31.85;97816.38;4995548;28;20413;-80
2022/04/05 10:11:14;;;;;;;6.25;2.60;;;;;;;8.83;31.38;97781.09;4946854;28;20046;-79
2022/04/05 10:13:40;;;;;;;5.05;2.53;;;;;;;8.91;31.74;97792.06;4995857;28;20031;-81
2022/04/05 10:16:06;;;;;;;;;;;;;;;8.86;31.55;97822.38;4962944;28;20490;-78
2022/04/05 10:18:35;;;;;;;5.53;2.90;;;;;;;8.16;32.20;97796.56;4979721;28;19924;-80
2022/04/05 10:21:03;;;;;;;5.65;2.95;;;;;;;7.82;33.13;97814.56;4961479;28;20038;-78
2022/04/05 10:23:29;;;;;;;5.47;2.97;;;;;;;7.35;33.38;97776.03;4980975;28;20034;-80
2022/04/05 10:25:54;;;;;;;;;;;;;;;7.49;34.29;97821.31;4977075;28;20043;-80
2022/04/05 10:28:22;;;;;;;4.13;2.53;;;;;;;7.00;34.70;97781.06;4978542;28;19964;-80
2022/04/05 10:30:55;;;;;;;10.70;3.22;;;;;;;7.24;35.24;97818.38;4982510;28;20053;-80
2022/04/05 10:33:25;;;;;;;5.30;3.40;;;;;;;7.17;35.48;97783.31;4964898;28;20129;-80
2022/04/05 10:35:53;;;;;;;5.70;3.20;;;;;;;7.18;34.87;97805.63;4980325;28;20482;-80
2022/04/05 10:38:19;;;;;;;9.75;3.55;;;;;;;7.26;34.69;97798.59;4951848;28;20532;-80
2022/04/05 10:41:10;;;;;;;7.47;3.15;;;;;;;7.17;34.94;97803.94;4965655;28;20042;-80
2022/04/05 10:43:38;;;;;;;5.25;3.33;;;;;;;6.97;34.28;97779.41;4963793;28;20050;-81
2022/04/05 10:46:05;;;;;;;4.95;2.70;;;;;;;6.68;34.67;97768.78;4980127;28;20126;-80
2022/04/05 10:48:31;;;;;;;6.13;3.42;;;;;;;6.88;34.74;97807.94;4966312;28;20066;-79
2022/04/05 10:51:00;;;;;;;4.75;2.88;;;;;;;6.81;35.25;97794.31;4977034;28;20477;-82
2022/04/05 10:53:34;;;;;;;7.05;3.33;;;;;;;6.72;35.77;97803.94;5020097;28;20043;-80
2022/04/05 10:56:03;;;;;;;5.03;3.08;;;;;;;6.61;36.11;97801.56;4970440;28;20129;-81
2022/04/05 10:58:35;;;;;;;4.70;3.30;;;;;;;6.66;36.08;97801.47;4997646;28;20034;-81
2022/04/05 11:01:35;;;;;;;7.47;3.55;;;;;;;6.80;34.98;97784.03;5043814;28;20070;-80
2022/04/05 11:04:20;;;;;;;5.43;3.20;;;;;;;6.93;35.68;97785.50;5017684;28;20038;-80
2022/04/05 11:07:10;;;;;;;8.25;3.67;;;;;;;6.45;36.11;97757.19;5021368;28;20455;-79
2022/04/05 11:09:44;;;;;;;5.22;3.42;;;;;;;6.44;36.55;97777.81;4968268;28;20082;-79
2022/04/05 11:12:18;;;;;;;5.03;3.25;;;;;;;6.17;36.25;97751.69;4965944;28;20502;-79
2022/04/05 11:14:50;;;;;;;9.00;3.60;;;;;;;6.28;35.96;97774.69;4976507;28;20046;-79
2022/04/05 11:17:17;;;;;;;5.85;3.17;;;;;;;6.32;36.54;97768.56;4975016;28;20049;-82
2022/04/05 11:19:46;;;;;;;5.07;3.47;;;;;;;6.23;36.83;97753.28;5033718;28;20022;-81
2022/04/05 11:22:21;;;;;;;5.15;3.35;;;;;;;6.18;37.17;97761.09;4999561;28;20045;-80
2022/04/05 11:24:53;;;;;;;7.15;3.78;;;;;;;6.09;36.95;97756.97;4999524;28;20070;-80
2022/04/05 11:27:42;;;;;;;5.78;3.60;;;;;;;6.15;38.09;97752.59;5032636;28;20096;-81
2022/04/05 11:30:38;;;;;;;6.60;3.42;;;;;;;6.01;37.57;97727.94;4985892;28;20039;-80
2022/04/05 11:33:09;;;;;;;8.18;3.88;;;;;;;6.29;37.64;97745.47;4981391;28;20051;-81
2022/04/05 11:35:35;;;;;;;7.72;4.18;;;;;;;6.40;37.34;97742.69;4987039;28;20428;-80
2022/04/05 11:38:01;;;;;;;6.15;3.53;;;;;;;6.17;37.15;97709.63;5049196;28;20038;-80
2022/04/05 11:40:26;;;;;;;;;;;;;;;6.33;37.49;97734.25;5000215;28;20050;-80
2022/04/05 11:42:52;;;;;;;7.65;3.65;;;;;;;6.08;37.31;97690.91;4973610;28;19920;-81
2022/04/05 11:45:18;;;;;;;5.90;3.58;;;;;;;6.19;36.68;97715.63;4963861;28;20046;-78
2022/04/05 11:47:53;;;;;;;5.35;3.30;;;;;;;6.08;36.96;97693.47;5002690;28;20079;-80